createdAt,value
2017-08-24T12:53:06.303Z,5.17
2017-08-24T12:55:34.444Z,5.43
2017-08-24T12:58:03.361Z,4.80
2017-08-24T13:00:31.735Z,5.20
2017-08-24T13:02:59.860Z,4.87
2017-08-24T13:05:28.006Z,5.00
2017-08-24T13:07:56.186Z,5.17
2017-08-24T13:10:24.326Z,5.27
2017-08-24T13:12:53.265Z,4.70
2017-08-24T13:15:21.401Z,4.73
2017-08-24T13:17:49.541Z,5.17
2017-08-24T13:20:17.745Z,5.53
2017-08-24T13:22:45.885Z,5.50
2017-08-24T13:25:14.057Z,5.07
2017-08-24T13:27:42.184Z,4.60
2017-08-24T13:30:10.356Z,4.60
2017-08-24T13:32:38.532Z,4.13
2017-08-24T13:35:06.672Z,4.53
2017-08-24T13:37:34.952Z,5.00
2017-08-24T13:40:03.855Z,4.70
2017-08-24T13:42:32.094Z,4.70
2017-08-24T13:45:00.250Z,3.90
2017-08-24T13:47:28.374Z,4.50
2017-08-24T13:49:56.551Z,4.60
2017-08-24T13:52:24.682Z,4.20
2017-08-24T13:54:52.808Z,4.07
2017-08-24T13:57:21.077Z,4.03
2017-08-24T13:59:49.208Z,4.10
2017-08-24T14:02:17.389Z,4.80
2017-08-24T14:04:46.296Z,3.90
2017-08-24T14:07:14.477Z,4.10
2017-08-24T14:09:42.597Z,4.23
2017-08-24T14:12:10.882Z,3.80
2017-08-24T14:14:39.032Z,3.20
2017-08-24T14:17:07.183Z,3.70
2017-08-24T14:19:35.344Z,3.90
2017-08-24T14:22:03.485Z,4.20
2017-08-24T14:24:31.616Z,4.20
2017-08-24T14:26:59.796Z,3.80
2017-08-24T14:29:27.916Z,4.00
2017-08-24T14:31:56.993Z,3.60
2017-08-24T14:34:25.141Z,3.97
2017-08-24T14:36:53.274Z,3.97
2017-08-24T14:39:21.444Z,4.50
2017-08-24T14:41:50.348Z,5.10
2017-08-24T14:44:18.493Z,4.30
2017-08-24T14:46:46.629Z,3.43
2017-08-24T14:49:14.928Z,4.20
2017-08-24T14:51:43.069Z,4.03
2017-08-24T14:54:11.200Z,4.40
2017-08-24T14:56:40.146Z,3.93
2017-08-24T14:59:08.290Z,4.00
2017-08-24T15:01:36.400Z,4.40
2017-08-24T15:04:04.566Z,4.40
2017-08-24T15:06:33.151Z,4.20
2017-08-24T15:09:01.288Z,4.03
2017-08-24T15:11:29.977Z,3.93
2017-08-24T15:13:58.155Z,3.70
2017-08-24T15:16:26.293Z,4.10
2017-08-24T15:18:54.457Z,4.10
2017-08-24T15:21:22.625Z,3.60
2017-08-24T15:23:50.926Z,3.80
2017-08-24T15:26:19.866Z,4.33
2017-08-24T15:28:48.010Z,3.90
2017-08-24T15:31:17.390Z,4.00
2017-08-24T15:33:45.535Z,4.27
2017-08-24T15:36:13.743Z,3.73
2017-08-24T15:38:41.892Z,3.80
2017-08-24T15:41:10.035Z,4.57
2017-08-24T15:43:38.310Z,3.57
2017-08-24T15:46:06.460Z,4.07
2017-08-24T15:48:34.631Z,4.30
2017-08-24T15:51:02.781Z,3.40
2017-08-24T15:53:31.681Z,3.80
2017-08-24T15:56:01.072Z,3.83
2017-08-24T15:58:29.977Z,3.97
2017-08-24T16:00:58.184Z,4.13
2017-08-24T16:03:26.326Z,3.80
2017-08-24T16:05:54.663Z,4.17
2017-08-24T16:08:22.806Z,4.03
2017-08-24T16:10:51.035Z,4.90
2017-08-24T16:13:19.173Z,3.47
2017-08-24T16:15:47.318Z,3.53
2017-08-24T16:18:15.475Z,3.70
2017-08-24T16:20:43.636Z,3.20
2017-08-24T16:23:11.845Z,3.13
2017-08-24T16:25:40.144Z,3.83
2017-08-24T16:28:08.315Z,3.47
2017-08-24T16:30:36.468Z,3.20
2017-08-24T16:33:04.613Z,3.43
2017-08-24T16:35:37.706Z,3.27
2017-08-24T16:38:05.853Z,3.40
2017-08-24T16:40:34.785Z,3.20
2017-08-24T16:43:02.998Z,2.97
2017-08-24T16:45:31.132Z,3.10
2017-08-24T16:47:59.273Z,3.00
2017-08-24T16:50:27.458Z,2.70
2017-08-24T16:52:55.597Z,3.50
2017-08-24T16:55:23.813Z,2.83
2017-08-24T16:57:51.969Z,2.83
2017-08-24T17:00:20.881Z,2.63
2017-08-24T17:02:49.061Z,2.70
2017-08-24T17:05:20.108Z,2.40
2017-08-24T17:07:50.748Z,2.57
2017-08-24T17:15:39.461Z,2.30
2017-08-24T17:18:10.044Z,2.13
2017-08-24T17:20:38.983Z,2.77
2017-08-24T17:23:13.366Z,2.50
2017-08-24T17:28:21.169Z,2.30
2017-08-24T17:30:49.476Z,2.80
2017-08-24T17:33:17.657Z,2.00
2017-08-24T17:35:46.826Z,2.30
2017-08-24T17:38:15.029Z,2.97
2017-08-24T17:40:43.211Z,2.10
2017-08-24T17:43:11.368Z,2.23
2017-08-24T17:45:39.544Z,2.40
2017-08-24T17:48:07.686Z,2.23
2017-08-24T17:50:35.825Z,2.30
2017-08-24T17:53:04.142Z,1.90
2017-08-24T17:55:32.324Z,2.10
2017-08-24T17:58:00.449Z,2.50
2017-08-24T18:00:28.626Z,2.50
2017-08-24T18:02:56.783Z,2.30
2017-08-24T18:05:24.933Z,2.10
2017-08-24T18:07:53.117Z,1.93
2017-08-24T18:10:21.256Z,1.90
2017-08-24T18:12:49.505Z,2.03
2017-08-24T18:15:18.290Z,2.23
2017-08-24T18:17:50.425Z,2.27
2017-08-24T18:20:20.599Z,2.07
2017-08-24T18:22:51.556Z,2.00
2017-08-24T18:25:23.025Z,1.90
2017-08-24T18:27:53.538Z,2.20
2017-08-24T18:33:19.640Z,2.37
2017-08-24T18:35:48.618Z,2.13
2017-08-24T18:38:17.418Z,1.93
2017-08-24T19:24:31.785Z,2.20
2017-08-24T20:26:04.609Z,3.40
2017-08-24T20:28:37.390Z,2.97
2017-08-24T20:31:13.260Z,3.77
2017-08-24T20:33:50.109Z,2.60
2017-08-24T20:39:02.135Z,2.53
2017-08-24T20:44:18.499Z,2.43
2017-08-24T20:46:53.782Z,2.53
2017-08-24T20:52:11.460Z,2.47
2017-08-24T20:54:48.354Z,2.30
2017-08-24T20:57:23.646Z,3.00
2017-08-24T21:00:00.826Z,2.23
2017-08-24T21:02:38.649Z,2.53
2017-08-24T21:05:15.016Z,2.55
2017-08-24T21:07:48.783Z,2.60
2017-08-24T21:10:22.528Z,2.55
2017-08-24T21:12:55.902Z,2.50
2017-08-24T21:15:34.938Z,2.72
2017-08-24T21:18:08.439Z,2.70
2017-08-24T21:20:42.037Z,2.80
2017-08-24T21:23:18.907Z,2.35
2017-08-24T21:25:54.055Z,2.62
2017-08-24T21:28:27.048Z,2.70
2017-08-24T21:31:01.447Z,2.70
2017-08-24T21:33:34.577Z,3.15
2017-08-24T21:36:10.231Z,3.05
2017-08-24T21:41:34.420Z,2.70
2017-08-24T21:44:06.828Z,3.30
2017-08-24T21:46:39.205Z,3.67
2017-08-24T21:49:12.561Z,2.90
2017-08-24T21:51:48.279Z,3.90
2017-08-24T21:54:21.880Z,2.87
2017-08-24T21:56:59.113Z,3.10
2017-08-24T21:59:33.894Z,3.05
2017-08-24T22:02:05.342Z,2.78
2017-08-24T22:04:38.573Z,3.60
2017-08-24T22:07:11.825Z,2.85
2017-08-24T22:09:46.781Z,3.22
2017-08-24T22:12:21.894Z,3.10
2017-08-24T22:14:54.910Z,2.62
2017-08-24T22:17:27.579Z,3.00
2017-08-24T22:20:02.206Z,2.60
2017-08-24T22:22:37.620Z,2.83
2017-08-24T22:25:14.209Z,2.80
2017-08-24T22:27:51.324Z,3.62
2017-08-24T22:30:27.740Z,2.92
2017-08-24T22:33:00.770Z,3.03
2017-08-24T22:35:33.741Z,3.22
2017-08-24T22:38:07.396Z,3.25
2017-08-24T22:40:40.535Z,3.15
2017-08-24T22:43:13.410Z,3.10
2017-08-24T22:45:45.209Z,3.30
2017-08-24T22:48:19.673Z,3.10
2017-08-24T22:50:53.659Z,3.58
2017-08-24T22:53:27.084Z,3.15
2017-08-24T22:56:01.301Z,3.00
2017-08-24T22:58:36.324Z,3.20
2017-08-24T23:01:11.280Z,3.62
2017-08-24T23:03:45.775Z,3.28
2017-08-24T23:06:19.838Z,2.97
2017-08-24T23:08:52.188Z,3.33
2017-08-24T23:11:25.498Z,3.22
2017-08-24T23:14:01.420Z,4.50
2017-08-24T23:16:34.270Z,3.60
2017-08-24T23:19:08.435Z,3.10
2017-08-24T23:21:42.085Z,3.80
2017-08-24T23:24:13.989Z,3.22
2017-08-24T23:26:46.131Z,3.75
2017-08-24T23:29:17.771Z,3.20
2017-08-24T23:31:50.723Z,3.10
2017-08-24T23:34:24.527Z,4.40
2017-08-24T23:36:58.860Z,3.28
2017-08-24T23:39:32.758Z,3.72
2017-08-24T23:42:07.062Z,3.80
2017-08-24T23:44:43.139Z,3.92
2017-08-24T23:47:16.199Z,4.28
2017-08-24T23:49:49.553Z,3.60
2017-08-24T23:52:23.161Z,3.60
2017-08-24T23:54:57.766Z,3.97
2017-08-24T23:57:31.050Z,3.90
